createdAt,value
2023-04-03T00:01:19.828Z,3.80
2023-04-03T00:03:47.181Z,3.53
2023-04-03T00:06:14.916Z,4.20
2023-04-03T00:08:42.417Z,3.63
2023-04-03T00:11:10.337Z,4.07
2023-04-03T00:13:38.720Z,3.70
2023-04-03T00:16:06.519Z,2.07
2023-04-03T00:18:34.170Z,1.57
2023-04-03T00:21:02.228Z,1.13
2023-04-03T00:23:29.651Z,1.00
2023-04-03T00:25:56.998Z,0.90
2023-04-03T00:28:24.502Z,0.90
2023-04-03T00:30:52.890Z,1.97
2023-04-03T00:33:23.144Z,2.90
2023-04-03T00:35:51.558Z,3.07
2023-04-03T00:38:19.781Z,4.03
2023-04-03T00:40:48.941Z,3.77
2023-04-03T00:43:23.383Z,8.30
2023-04-03T00:45:52.233Z,2.73
2023-04-03T00:48:29.633Z,4.20
2023-04-03T00:50:57.375Z,0.93
2023-04-03T00:53:28.227Z,0.93
2023-04-03T00:55:56.934Z,1.00
2023-04-03T00:58:50.909Z,0.80
2023-04-03T01:01:22.376Z,3.83
2023-04-03T01:03:49.774Z,3.70
2023-04-03T01:06:18.978Z,3.83
2023-04-03T01:08:48.254Z,3.60
2023-04-03T01:11:15.711Z,3.97
2023-04-03T01:13:43.415Z,4.57
2023-04-03T01:16:10.972Z,5.50
2023-04-03T01:18:40.815Z,2.97
2023-04-03T01:21:36.016Z,2.33
2023-04-03T01:24:21.347Z,0.95
2023-04-03T01:26:49.437Z,3.80
2023-04-03T01:29:16.800Z,4.20
2023-04-03T01:32:03.844Z,4.13
2023-04-03T01:34:32.099Z,1.27
2023-04-03T01:36:59.939Z,0.82
2023-04-03T01:39:27.587Z,1.20
2023-04-03T01:41:55.219Z,0.90
2023-04-03T01:44:22.611Z,1.58
2023-04-03T01:46:49.911Z,3.92
2023-04-03T01:49:17.397Z,3.85
2023-04-03T01:51:44.962Z,3.83
2023-04-03T01:54:12.270Z,4.20
2023-04-03T01:56:40.239Z,2.50
2023-04-03T01:59:07.628Z,3.65
2023-04-03T02:01:35.011Z,1.57
2023-04-03T02:04:02.584Z,1.00
2023-04-03T02:06:31.357Z,0.80
2023-04-03T02:09:00.748Z,0.80
2023-04-03T02:11:28.114Z,0.80
2023-04-03T02:13:55.374Z,0.75
2023-04-03T02:16:22.718Z,1.42
2023-04-03T02:18:50.264Z,3.90
2023-04-03T02:21:17.467Z,4.00
2023-04-03T02:23:44.887Z,3.80
2023-04-03T02:26:14.521Z,3.75
2023-04-03T02:28:42.541Z,4.30
2023-04-03T02:31:11.758Z,2.17
2023-04-03T02:33:39.643Z,2.83
2023-04-03T02:36:08.331Z,1.92
2023-04-03T02:38:36.423Z,2.17
2023-04-03T02:41:09.100Z,0.80
2023-04-03T02:43:36.478Z,1.75
2023-04-03T02:46:04.039Z,3.55
2023-04-03T02:48:33.286Z,1.00
2023-04-03T02:51:01.188Z,0.90
2023-04-03T02:53:28.524Z,0.80
2023-04-03T02:55:55.841Z,0.90
2023-04-03T02:58:23.095Z,1.63
2023-04-03T03:00:50.611Z,3.65
2023-04-03T03:03:18.003Z,3.90
2023-04-03T03:05:45.317Z,4.50
2023-04-03T03:08:12.586Z,4.75
2023-04-03T03:10:39.929Z,3.30
2023-04-03T03:13:07.177Z,1.50
2023-04-03T03:15:34.660Z,0.80
2023-04-03T03:18:03.106Z,1.00
2023-04-03T03:20:30.667Z,0.70
2023-04-03T03:22:57.907Z,0.80
2023-04-03T03:25:25.320Z,1.17
2023-04-03T03:27:52.999Z,2.47
2023-04-03T03:30:20.267Z,4.13
2023-04-03T03:32:47.643Z,3.35
2023-04-03T03:35:15.211Z,5.25
2023-04-03T03:37:42.581Z,3.55
2023-04-03T03:40:10.754Z,2.38
2023-04-03T03:42:38.106Z,2.08
2023-04-03T03:45:06.245Z,1.20
2023-04-03T03:47:33.611Z,0.80
2023-04-03T03:50:02.181Z,0.90
2023-04-03T03:52:29.722Z,0.88
2023-04-03T03:54:57.476Z,0.90
2023-04-03T03:57:25.116Z,1.70
2023-04-03T03:59:53.989Z,3.20
2023-04-03T04:02:21.391Z,3.80
2023-04-03T04:04:49.602Z,3.70
2023-04-03T04:07:16.967Z,4.20
2023-04-03T04:09:44.346Z,4.38
2023-04-03T04:12:11.981Z,3.25
2023-04-03T04:14:39.389Z,2.70
2023-04-03T04:17:06.785Z,1.85
2023-04-03T04:19:34.760Z,1.20
2023-04-03T04:22:02.110Z,0.88
2023-04-03T04:24:29.400Z,1.23
2023-04-03T04:26:56.649Z,0.90
2023-04-03T04:29:23.914Z,2.22
2023-04-03T04:31:51.351Z,3.97
2023-04-03T04:34:18.791Z,4.25
2023-04-03T04:36:46.293Z,4.93
2023-04-03T04:39:13.984Z,5.43
2023-04-03T04:41:41.364Z,3.55
2023-04-03T04:44:08.634Z,2.20
2023-04-03T04:46:36.082Z,0.90
2023-04-03T04:49:04.360Z,0.98
2023-04-03T04:51:38.138Z,0.90
2023-04-03T04:54:16.355Z,4.90
2023-04-03T04:56:43.912Z,2.70
2023-04-03T04:59:11.344Z,1.52
2023-04-03T05:01:39.021Z,0.95
2023-04-03T05:04:07.140Z,0.90
2023-04-03T05:06:37.498Z,4.40
2023-04-03T05:09:06.189Z,1.00
2023-04-03T05:11:33.912Z,0.93
2023-04-03T05:14:01.470Z,0.93
2023-04-03T05:16:29.208Z,2.83
2023-04-03T05:18:56.609Z,4.50
2023-04-03T05:21:26.312Z,4.50
2023-04-03T05:23:53.835Z,3.92
2023-04-03T05:26:22.382Z,4.25
2023-04-03T05:28:49.768Z,4.22
2023-04-03T05:31:17.307Z,3.03
2023-04-03T05:33:45.057Z,1.73
2023-04-03T05:36:14.258Z,0.90
2023-04-03T05:38:42.036Z,0.90
2023-04-03T05:41:11.728Z,0.80
2023-04-03T05:43:40.416Z,0.90
2023-04-03T05:46:13.742Z,0.90
2023-04-03T05:48:42.420Z,0.90
2023-04-03T05:51:18.374Z,0.85
2023-04-03T05:53:46.797Z,1.48
2023-04-03T05:56:14.947Z,0.90
2023-04-03T05:58:42.525Z,0.90
2023-04-03T06:01:10.518Z,1.10
2023-04-03T06:03:40.074Z,0.80
2023-04-03T06:06:09.294Z,1.20
2023-04-03T06:08:36.769Z,1.00
2023-04-03T06:11:04.246Z,1.40
2023-04-03T06:13:31.677Z,3.25
2023-04-03T06:15:59.799Z,3.17
2023-04-03T06:18:27.474Z,3.58
2023-04-03T06:20:55.008Z,2.95
2023-04-03T06:23:22.425Z,1.75
2023-04-03T06:25:51.864Z,2.42
2023-04-03T06:28:28.438Z,1.58
2023-04-03T06:31:01.061Z,3.75
2023-04-03T06:33:30.779Z,3.35
2023-04-03T06:36:02.556Z,2.88
2023-04-03T06:38:32.298Z,3.57
2023-04-03T06:41:02.572Z,3.08
2023-04-03T06:43:36.189Z,3.45
2023-04-03T06:46:19.753Z,3.38
2023-04-03T06:48:50.725Z,1.00
2023-04-03T06:51:23.851Z,0.93
2023-04-03T06:53:52.777Z,1.80
2023-04-03T06:56:20.956Z,1.75
2023-04-03T06:58:52.971Z,1.30
2023-04-03T07:01:21.090Z,1.50
2023-04-03T07:03:49.653Z,0.88
2023-04-03T07:06:18.943Z,1.42
2023-04-03T07:08:47.224Z,0.90
2023-04-03T07:11:14.898Z,0.80
2023-04-03T07:13:42.344Z,1.00
2023-04-03T07:16:10.763Z,2.28
2023-04-03T07:18:51.172Z,3.30
2023-04-03T07:21:21.373Z,1.00
2023-04-03T07:26:17.193Z,1.00
2023-04-03T07:28:46.180Z,0.93
2023-04-03T07:31:14.954Z,1.20
2023-04-03T07:33:48.978Z,1.42
2023-04-03T07:36:19.506Z,0.90
2023-04-03T07:38:47.272Z,0.80
2023-04-03T07:41:20.104Z,1.60
2023-04-03T07:43:48.283Z,0.90
2023-04-03T07:46:16.527Z,0.90
2023-04-03T07:48:45.002Z,1.20
2023-04-03T07:51:12.476Z,2.88
2023-04-03T07:53:40.078Z,3.25
2023-04-03T07:56:08.549Z,3.05
2023-04-03T07:58:36.458Z,3.80
2023-04-03T08:01:04.653Z,3.30
2023-04-03T08:03:32.221Z,2.65
2023-04-03T08:06:06.084Z,2.00
2023-04-03T08:08:35.762Z,3.75
2023-04-03T08:11:04.243Z,2.22
2023-04-03T08:13:32.078Z,1.97
2023-04-03T08:16:00.464Z,1.70
2023-04-03T08:18:28.378Z,0.90
2023-04-03T08:20:56.864Z,0.85
2023-04-03T08:23:24.264Z,0.90
2023-04-03T08:25:52.443Z,0.95
2023-04-03T08:28:19.905Z,1.35
2023-04-03T08:30:47.766Z,3.00
2023-04-03T08:33:17.196Z,2.88
2023-04-03T08:35:44.967Z,3.20
2023-04-03T08:38:12.865Z,3.55
2023-04-03T08:40:41.697Z,3.20
2023-04-03T08:43:21.537Z,3.72
2023-04-03T08:45:53.366Z,2.95
2023-04-03T08:48:29.844Z,1.98
2023-04-03T08:51:03.312Z,0.80
2023-04-03T08:53:35.167Z,1.10
2023-04-03T08:56:07.919Z,0.80
2023-04-03T08:58:45.646Z,1.73
2023-04-03T09:01:30.097Z,4.00
2023-04-03T09:03:57.801Z,1.00
2023-04-03T09:06:34.908Z,1.40
2023-04-03T09:09:12.179Z,0.82
2023-04-03T09:11:52.510Z,2.03
2023-04-03T09:14:36.643Z,3.43
2023-04-03T09:17:34.247Z,1.00
2023-04-03T09:20:20.177Z,0.90
2023-04-03T09:22:52.245Z,3.50
2023-04-03T09:25:35.048Z,2.80
2023-04-03T09:28:05.469Z,0.80
2023-04-03T09:30:32.990Z,1.00
2023-04-03T09:33:00.767Z,1.13
2023-04-03T09:35:46.704Z,2.30
2023-04-03T09:38:15.465Z,3.17
2023-04-03T09:40:45.997Z,1.50
2023-04-03T09:43:24.805Z,1.20
2023-04-03T09:50:32.896Z,0.90
2023-04-03T09:53:00.403Z,2.87
2023-04-03T09:55:30.175Z,3.00
2023-04-03T09:58:05.733Z,2.83
2023-04-03T10:00:34.805Z,2.83
2023-04-03T10:03:02.965Z,3.00
2023-04-03T10:05:42.132Z,2.80
2023-04-03T10:08:18.104Z,0.70
2023-04-03T10:10:50.564Z,0.80
2023-04-03T10:13:23.885Z,0.73
2023-04-03T10:16:13.013Z,1.13
2023-04-03T10:18:57.723Z,1.00
2023-04-03T10:21:44.383Z,3.27
2023-04-03T10:24:12.031Z,0.90
2023-04-03T10:26:47.589Z,1.97
2023-04-03T10:29:38.200Z,0.80
2023-04-03T10:32:22.899Z,2.80
2023-04-03T10:37:37.999Z,1.17
2023-04-03T10:40:32.612Z,2.80
2023-04-03T10:43:11.994Z,2.10
2023-04-03T10:45:49.928Z,2.70
2023-04-03T10:48:47.059Z,0.80
2023-04-03T10:51:24.800Z,1.23
2023-04-03T10:53:58.811Z,0.70
2023-04-03T10:57:04.457Z,1.17
2023-04-03T10:59:56.537Z,2.87
2023-04-03T11:02:26.416Z,0.70
2023-04-03T11:05:04.096Z,0.70
2023-04-03T11:07:44.892Z,2.10
2023-04-03T11:10:27.718Z,2.93
2023-04-03T11:13:04.322Z,0.83
2023-04-03T11:15:34.725Z,1.27
2023-04-03T11:18:28.445Z,1.37
2023-04-03T11:21:19.223Z,0.80
2023-04-03T11:23:50.028Z,2.70
2023-04-03T11:26:24.201Z,2.40
2023-04-03T11:29:28.160Z,0.70
2023-04-03T11:32:33.409Z,0.90
2023-04-03T11:35:03.018Z,0.70
2023-04-03T11:37:37.058Z,0.90
2023-04-03T11:40:10.410Z,1.17
2023-04-03T11:42:40.063Z,2.13
2023-04-03T11:45:34.073Z,1.60
2023-04-03T11:48:25.329Z,0.63
2023-04-03T11:50:53.108Z,1.67
2023-04-03T11:53:47.036Z,2.50
2023-04-03T11:56:29.175Z,2.70
2023-04-03T11:59:14.987Z,1.20
2023-04-03T12:01:54.536Z,2.50
2023-04-03T12:04:25.517Z,2.40
2023-04-03T12:07:16.099Z,2.30
2023-04-03T12:09:46.039Z,2.37
2023-04-03T12:12:36.564Z,2.57
2023-04-03T12:15:25.756Z,0.70
2023-04-03T12:17:53.525Z,2.33
2023-04-03T12:20:54.763Z,2.87
2023-04-03T12:23:30.456Z,2.70
2023-04-03T12:26:06.356Z,2.40
2023-04-03T12:28:41.112Z,0.97
2023-04-03T12:31:12.189Z,0.70
2023-04-03T12:33:59.255Z,0.70
2023-04-03T12:36:45.229Z,2.17
2023-04-03T12:39:51.368Z,0.70
2023-04-03T12:42:36.654Z,2.13
2023-04-03T12:45:22.886Z,1.10
2023-04-03T12:47:53.997Z,2.70
2023-04-03T12:50:24.918Z,1.87
2023-04-03T12:52:57.998Z,1.87
2023-04-03T12:55:25.291Z,3.23
2023-04-03T12:57:52.584Z,2.93
2023-04-03T13:00:22.375Z,1.17
2023-04-03T13:02:49.804Z,1.30
2023-04-03T13:05:19.825Z,0.70
2023-04-03T13:07:55.900Z,1.07
2023-04-03T13:10:23.373Z,2.23
2023-04-03T13:12:59.716Z,1.10
2023-04-03T13:15:43.599Z,1.33
2023-04-03T13:18:29.611Z,0.90
2023-04-03T13:21:09.028Z,2.00
2023-04-03T13:23:39.421Z,2.40
2023-04-03T13:26:07.678Z,2.20
2023-04-03T13:28:36.484Z,2.10
2023-04-03T13:31:18.228Z,2.70
2023-04-03T13:33:57.607Z,2.50
2023-04-03T13:36:50.857Z,0.90
2023-04-03T13:39:18.343Z,2.50
2023-04-03T13:41:48.443Z,2.00
2023-04-03T13:44:24.560Z,2.50
2023-04-03T13:46:57.320Z,1.67
2023-04-03T13:49:52.329Z,3.53
2023-04-03T13:52:24.453Z,2.43
2023-04-03T13:54:58.646Z,1.93
2023-04-03T13:57:26.660Z,0.80
2023-04-03T13:59:54.053Z,1.33
2023-04-03T14:02:33.333Z,2.13
2023-04-03T14:05:03.070Z,0.70
2023-04-03T14:07:32.410Z,0.80
2023-04-03T14:10:00.008Z,0.80
2023-04-03T14:12:38.966Z,0.80
2023-04-03T14:15:26.262Z,1.20
2023-04-03T14:17:53.947Z,1.10
2023-04-03T14:20:25.244Z,1.93
2023-04-03T14:22:52.643Z,1.53
2023-04-03T14:25:21.540Z,1.93
2023-04-03T14:27:50.933Z,2.50
2023-04-03T14:30:27.229Z,2.33
2023-04-03T14:32:55.118Z,1.00
2023-04-03T14:35:22.491Z,1.17
2023-04-03T14:37:50.943Z,2.10
2023-04-03T14:40:23.939Z,2.20
2023-04-03T14:42:52.069Z,2.20
2023-04-03T14:45:19.832Z,2.03
2023-04-03T14:47:53.783Z,2.40
2023-04-03T14:50:27.235Z,1.93
2023-04-03T14:52:57.841Z,0.70
2023-04-03T14:55:26.660Z,0.70
2023-04-03T14:57:54.815Z,0.90
2023-04-03T15:00:23.278Z,1.30
2023-04-03T15:02:51.086Z,1.80
2023-04-03T15:05:18.479Z,2.23
2023-04-03T15:07:55.684Z,2.00
2023-04-03T15:10:26.394Z,1.03
2023-04-03T15:12:54.387Z,3.03
2023-04-03T15:15:23.351Z,1.67
2023-04-03T15:17:56.274Z,2.00
2023-04-03T15:20:27.813Z,0.90
2023-04-03T15:22:57.663Z,0.73
2023-04-03T15:25:27.122Z,0.60
2023-04-03T15:27:56.077Z,0.80
2023-04-03T15:30:23.952Z,0.77
2023-04-03T15:32:51.784Z,1.73
2023-04-03T15:35:23.837Z,1.90
2023-04-03T15:37:52.615Z,1.93
2023-04-03T15:40:20.483Z,2.20
2023-04-03T15:42:48.933Z,1.90
2023-04-03T15:45:16.658Z,1.93
2023-04-03T15:47:44.409Z,1.93
2023-04-03T15:50:11.887Z,2.63
2023-04-03T15:52:39.459Z,1.20
2023-04-03T15:55:07.653Z,0.77
2023-04-03T16:00:07.961Z,0.97
2023-04-03T16:02:36.080Z,1.00
2023-04-03T16:05:04.954Z,0.70
2023-04-03T16:07:32.977Z,0.67
2023-04-03T16:10:02.235Z,0.80
2023-04-03T16:12:29.799Z,0.60
2023-04-03T16:14:57.488Z,0.80
2023-04-03T16:17:25.188Z,0.70
2023-04-03T16:19:52.979Z,1.77
2023-04-03T16:22:20.495Z,2.83
2023-04-03T16:24:48.092Z,3.07
2023-04-03T16:27:15.804Z,2.20
2023-04-03T16:29:43.734Z,3.70
2023-04-03T16:32:11.327Z,2.37
2023-04-03T16:34:39.051Z,3.20
2023-04-03T16:37:06.961Z,1.10
2023-04-03T16:39:35.116Z,0.90
2023-04-03T16:42:02.967Z,0.60
2023-04-03T16:44:32.158Z,1.20
2023-04-03T16:47:01.312Z,0.70
2023-04-03T16:49:34.294Z,0.80
2023-04-03T16:52:04.243Z,0.70
2023-04-03T16:54:33.866Z,0.90
2023-04-03T16:57:01.973Z,0.90
2023-04-03T16:59:30.946Z,0.90
2023-04-03T17:01:58.813Z,0.83
2023-04-03T17:04:26.805Z,0.80
2023-04-03T17:06:54.421Z,1.10
2023-04-03T17:09:22.270Z,1.93
2023-04-03T17:11:49.732Z,3.60
2023-04-03T17:14:17.114Z,4.00
2023-04-03T17:16:44.574Z,2.60
2023-04-03T17:19:13.301Z,2.70
2023-04-03T17:21:40.877Z,1.87
2023-04-03T17:24:10.326Z,2.57
2023-04-03T17:26:38.661Z,1.37
2023-04-03T17:29:08.141Z,1.07
2023-04-03T17:31:36.169Z,1.00
2023-04-03T17:34:04.324Z,1.20
2023-04-03T17:36:33.277Z,0.80
2023-04-03T17:39:01.139Z,0.90
2023-04-03T17:41:28.611Z,0.70
2023-04-03T17:43:57.270Z,1.00
2023-04-03T17:46:26.544Z,1.17
2023-04-03T17:48:53.825Z,1.43
2023-04-03T17:51:23.325Z,2.60
2023-04-03T17:53:50.648Z,2.90
2023-04-03T17:56:27.530Z,2.80
2023-04-03T17:58:58.788Z,1.67
2023-04-03T18:01:32.501Z,0.80
2023-04-03T18:04:02.659Z,1.13
2023-04-03T18:06:38.792Z,0.90
2023-04-03T18:09:19.113Z,1.33
2023-04-03T18:11:48.029Z,3.27
2023-04-03T18:14:18.513Z,3.27
2023-04-03T18:16:46.487Z,2.80
2023-04-03T18:21:46.043Z,4.00
2023-04-03T18:24:14.929Z,2.80
2023-04-03T18:26:44.175Z,3.20
2023-04-03T18:29:12.266Z,3.70
2023-04-03T18:31:42.687Z,2.13
2023-04-03T18:34:10.029Z,2.50
2023-04-03T18:36:37.193Z,1.30
2023-04-03T18:39:05.395Z,1.20
2023-04-03T18:41:34.945Z,0.70
2023-04-03T18:44:04.836Z,1.03
2023-04-03T18:46:33.409Z,0.97
2023-04-03T18:49:01.560Z,1.20
2023-04-03T18:51:28.967Z,0.80
2023-04-03T18:53:56.537Z,0.90
2023-04-03T18:56:23.874Z,1.30
2023-04-03T18:58:51.193Z,2.80
2023-04-03T19:01:19.008Z,3.43
2023-04-03T19:07:24.245Z,1.43
2023-04-03T19:09:51.548Z,2.70
2023-04-03T19:12:18.879Z,3.43
2023-04-03T19:14:46.071Z,3.57
2023-04-03T19:17:13.349Z,3.03
2023-04-03T19:19:40.973Z,2.97
2023-04-03T19:22:08.841Z,7.87
2023-04-03T19:24:36.277Z,1.77
2023-04-03T19:27:04.549Z,1.10
2023-04-03T19:29:32.276Z,1.25
2023-04-03T19:31:59.617Z,1.92
2023-04-03T19:34:26.968Z,1.30
2023-04-03T19:36:54.875Z,1.63
2023-04-03T19:39:22.748Z,2.75
2023-04-03T19:41:50.128Z,3.40
2023-04-03T19:44:17.379Z,3.25
2023-04-03T19:46:51.069Z,5.20
2023-04-03T19:49:19.441Z,3.38
2023-04-03T19:51:46.802Z,3.60
2023-04-03T19:54:14.054Z,4.70
2023-04-03T19:56:41.513Z,4.38
2023-04-03T19:59:08.804Z,4.00
2023-04-03T20:01:36.555Z,1.27
2023-04-03T20:04:04.372Z,1.35
2023-04-03T20:06:32.386Z,0.88
2023-04-03T20:08:59.763Z,0.98
2023-04-03T20:11:28.284Z,0.90
2023-04-03T20:13:56.736Z,1.25
2023-04-03T20:16:26.096Z,1.45
2023-04-03T20:18:56.067Z,1.85
2023-04-03T20:21:30.464Z,1.00
2023-04-03T20:23:58.221Z,0.98
2023-04-03T20:26:27.616Z,1.00
2023-04-03T20:28:57.126Z,1.13
2023-04-03T20:31:26.067Z,1.33
2023-04-03T20:33:53.579Z,2.22
2023-04-03T20:36:22.165Z,4.10
2023-04-03T20:38:50.289Z,3.70
2023-04-03T20:41:17.605Z,3.95
2023-04-03T20:43:46.144Z,4.95
2023-04-03T20:46:14.560Z,4.05
2023-04-03T20:48:41.905Z,4.75
2023-04-03T20:51:11.597Z,3.08
2023-04-03T20:53:39.428Z,3.78
2023-04-03T20:56:08.602Z,2.30
2023-04-03T20:58:39.286Z,2.13
2023-04-03T21:01:18.831Z,2.25
2023-04-03T21:03:47.442Z,3.92
2023-04-03T21:06:52.457Z,5.07
2023-04-03T21:09:57.350Z,4.00
2023-04-03T21:13:02.118Z,1.30
2023-04-03T21:15:50.240Z,0.80
2023-04-03T21:18:52.775Z,4.00
2023-04-03T21:21:24.782Z,4.53
2023-04-03T21:23:53.310Z,3.15
2023-04-03T21:26:22.280Z,4.30
2023-04-03T21:28:53.297Z,3.60
2023-04-03T21:31:24.093Z,3.80
2023-04-03T21:33:51.630Z,3.40
2023-04-03T21:36:18.797Z,4.18
2023-04-03T21:38:46.315Z,4.00
2023-04-03T21:41:13.665Z,4.50
2023-04-03T21:43:41.045Z,2.58
2023-04-03T21:46:08.273Z,2.83
2023-04-03T21:48:37.057Z,1.58
2023-04-03T21:51:05.411Z,1.00
2023-04-03T21:53:34.898Z,0.88
2023-04-03T21:56:02.914Z,0.80
2023-04-03T21:58:31.766Z,0.70
2023-04-03T22:01:19.749Z,0.95
2023-04-03T22:03:47.904Z,3.25
2023-04-03T22:06:16.768Z,4.03
2023-04-03T22:08:44.610Z,3.28
2023-04-03T22:11:14.832Z,4.72
2023-04-03T22:13:43.044Z,3.30
2023-04-03T22:16:12.398Z,2.45
2023-04-03T22:18:40.169Z,2.50
2023-04-03T22:21:10.036Z,1.75
2023-04-03T22:23:38.170Z,1.58
2023-04-03T22:26:06.581Z,2.55
2023-04-03T22:28:38.210Z,0.90
2023-04-03T22:31:10.223Z,2.63
2023-04-03T22:33:38.426Z,1.67
2023-04-03T22:36:06.807Z,2.28
2023-04-03T22:38:35.271Z,0.95
2023-04-03T22:41:04.958Z,1.23
2023-04-03T22:43:33.917Z,0.90
2023-04-03T22:46:06.892Z,0.90
2023-04-03T22:48:34.549Z,1.13
2023-04-03T22:51:07.098Z,1.08
2023-04-03T22:53:34.991Z,0.90
2023-04-03T22:56:05.174Z,1.08
2023-04-03T22:58:32.645Z,0.90
2023-04-03T23:01:07.851Z,0.95
2023-04-03T23:03:36.568Z,1.52
2023-04-03T23:06:05.413Z,1.20
2023-04-03T23:08:41.101Z,1.00
2023-04-03T23:11:09.834Z,2.22
2023-04-03T23:13:37.449Z,1.92
2023-04-03T23:16:06.225Z,0.80
2023-04-03T23:18:33.814Z,0.95
2023-04-03T23:21:04.455Z,1.00
2023-04-03T23:23:32.197Z,1.00
2023-04-03T23:26:02.353Z,1.00
2023-04-03T23:28:30.686Z,1.00
2023-04-03T23:31:03.160Z,1.00
2023-04-03T23:33:32.689Z,1.10
2023-04-03T23:36:01.482Z,0.98
2023-04-03T23:38:28.705Z,0.90
2023-04-03T23:40:57.101Z,1.00
2023-04-03T23:43:24.486Z,1.40
2023-04-03T23:45:51.946Z,3.65
2023-04-03T23:48:19.292Z,4.13
2023-04-03T23:50:46.729Z,3.95
2023-04-03T23:53:14.113Z,5.13
2023-04-03T23:55:42.222Z,2.80
2023-04-03T23:58:09.885Z,3.65
